createdAt,value
2022-12-25T00:00:20.930Z,5.19
2022-12-25T00:05:45.107Z,5.11
2022-12-25T00:10:57.819Z,4.99
2022-12-25T00:16:06.993Z,4.97
2022-12-25T00:21:11.501Z,5.02
2022-12-25T00:26:16.977Z,5.13
2022-12-25T00:31:21.690Z,5.23
2022-12-25T00:36:25.650Z,5.23
2022-12-25T00:41:47.801Z,5.19
2022-12-25T00:46:51.653Z,5.24
2022-12-25T00:51:55.647Z,5.30
2022-12-25T00:56:59.360Z,5.37
2022-12-25T01:02:21.662Z,5.46
2022-12-25T01:07:27.003Z,5.55
2022-12-25T01:12:34.001Z,5.51
2022-12-25T01:17:37.753Z,5.37
2022-12-25T01:22:41.666Z,5.23
2022-12-25T01:27:45.317Z,5.07
2022-12-25T01:32:49.127Z,4.93
2022-12-25T01:37:53.275Z,4.78
2022-12-25T01:42:57.052Z,4.70
2022-12-25T01:48:07.475Z,4.71
2022-12-25T01:53:11.920Z,4.72
2022-12-25T01:58:16.802Z,4.72
2022-12-25T02:03:21.952Z,4.71
2022-12-25T02:08:25.931Z,4.68
2022-12-25T02:13:29.777Z,4.63
2022-12-25T02:18:59.406Z,4.61
2022-12-25T02:24:19.027Z,4.61
2022-12-25T02:29:54.735Z,4.66
2022-12-25T02:35:18.637Z,4.66
2022-12-25T02:40:26.915Z,4.55
2022-12-25T02:45:49.180Z,4.60
2022-12-25T02:51:12.653Z,4.68
2022-12-25T02:56:37.863Z,4.72
2022-12-25T03:02:02.023Z,4.76
2022-12-25T03:07:13.002Z,4.76
2022-12-25T03:12:18.818Z,4.64
2022-12-25T03:17:22.583Z,4.58
2022-12-25T03:22:50.494Z,4.58
2022-12-25T03:27:56.356Z,4.60
2022-12-25T03:33:23.577Z,4.60
2022-12-25T03:38:50.814Z,4.55
2022-12-25T03:44:24.806Z,4.49
2022-12-25T03:49:58.663Z,4.39
2022-12-25T03:55:25.610Z,4.27
2022-12-25T04:00:47.787Z,4.20
2022-12-25T04:06:10.120Z,4.22
2022-12-25T04:11:32.401Z,4.24
2022-12-25T04:16:56.424Z,4.17
2022-12-25T04:22:18.933Z,4.06
2022-12-25T04:27:41.634Z,3.93
2022-12-25T04:33:11.394Z,3.79
2022-12-25T04:38:15.185Z,3.71
2022-12-25T04:43:19.443Z,3.63
2022-12-25T04:48:23.381Z,3.55
2022-12-25T04:53:27.048Z,3.44
2022-12-25T04:58:32.424Z,3.31
2022-12-25T05:03:36.784Z,3.28
2022-12-25T05:08:40.628Z,3.30
2022-12-25T05:13:44.873Z,3.35
2022-12-25T05:18:52.252Z,3.43
2022-12-25T05:23:55.913Z,3.54
2022-12-25T05:28:59.718Z,3.61
2022-12-25T05:34:03.837Z,3.62
2022-12-25T05:39:07.555Z,3.61
2022-12-25T05:44:12.643Z,3.62
2022-12-25T05:49:16.516Z,3.64
2022-12-25T05:54:20.266Z,3.70
2022-12-25T05:59:24.041Z,3.73
2022-12-25T06:04:27.800Z,3.70
2022-12-25T06:09:31.524Z,3.67
2022-12-25T06:14:35.833Z,3.63
2022-12-25T06:19:39.621Z,3.60
2022-12-25T06:24:43.444Z,3.64
2022-12-25T06:29:47.233Z,3.60
2022-12-25T06:34:51.362Z,3.33
2022-12-25T06:39:55.003Z,2.97
2022-12-25T06:44:58.822Z,2.65
2022-12-25T06:50:06.223Z,2.46
2022-12-25T06:55:10.305Z,2.33
2022-12-25T07:00:14.645Z,2.13
2022-12-25T07:05:18.639Z,1.95
2022-12-25T07:10:22.367Z,1.82
2022-12-25T07:15:26.119Z,1.79
2022-12-25T07:20:30.475Z,1.84
2022-12-25T07:25:37.411Z,1.79
2022-12-25T07:30:41.431Z,1.74
2022-12-25T07:35:45.127Z,1.74
2022-12-25T07:40:48.990Z,1.81
2022-12-25T07:46:00.861Z,1.98
2022-12-25T07:51:07.347Z,2.08
2022-12-25T07:56:14.090Z,2.10
2022-12-25T08:01:21.660Z,2.11
2022-12-25T08:06:30.122Z,2.16
2022-12-25T08:11:34.097Z,2.24
2022-12-25T08:16:42.017Z,2.34
2022-12-25T08:21:45.948Z,2.48
2022-12-25T08:26:49.614Z,2.62
2022-12-25T08:31:53.783Z,2.73
2022-12-25T08:36:57.528Z,2.83
2022-12-25T08:42:01.207Z,2.98
2022-12-25T08:47:05.216Z,3.10
2022-12-25T08:52:09.060Z,3.27
2022-12-25T08:57:12.789Z,3.43
2022-12-25T09:02:17.562Z,3.57
2022-12-25T09:07:21.591Z,3.72
2022-12-25T09:12:25.367Z,3.85
2022-12-25T09:17:29.233Z,4.00
2022-12-25T09:22:34.688Z,4.15
2022-12-25T09:27:39.735Z,4.31
2022-12-25T09:32:43.610Z,4.45
2022-12-25T09:37:47.328Z,4.59
2022-12-25T09:42:53.970Z,4.71
2022-12-25T09:47:57.740Z,4.87
2022-12-25T09:53:08.007Z,5.01
2022-12-25T09:58:13.641Z,5.17
2022-12-25T10:03:40.298Z,5.31
2022-12-25T10:09:17.031Z,5.48
2022-12-25T10:14:31.489Z,5.68
2022-12-25T10:19:41.004Z,5.83
2022-12-25T10:24:52.627Z,6.00
2022-12-25T10:29:56.436Z,6.14
2022-12-25T10:35:00.274Z,6.28
2022-12-25T10:40:04.848Z,6.41
2022-12-25T10:45:10.230Z,6.52
2022-12-25T10:50:24.829Z,6.63
2022-12-25T10:55:29.707Z,6.71
2022-12-25T11:00:34.299Z,6.79
2022-12-25T11:05:38.151Z,6.83
2022-12-25T11:10:44.845Z,6.92
2022-12-25T11:15:49.726Z,7.02
2022-12-25T11:20:58.511Z,7.09
2022-12-25T11:26:05.375Z,7.17
2022-12-25T11:31:20.230Z,7.26
2022-12-25T11:36:46.384Z,7.35
2022-12-25T11:42:16.074Z,7.45
2022-12-25T11:47:29.803Z,7.54
2022-12-25T11:52:37.401Z,7.63
2022-12-25T11:57:41.994Z,7.74
2022-12-25T12:03:10.176Z,7.87
2022-12-25T12:08:14.796Z,7.97
2022-12-25T12:13:31.002Z,8.04
2022-12-25T12:18:35.084Z,8.09
2022-12-25T12:24:10.065Z,8.19
2022-12-25T12:29:44.039Z,8.34
2022-12-25T12:34:51.677Z,8.61
2022-12-25T12:39:55.903Z,8.96
2022-12-25T12:45:09.569Z,9.14
2022-12-25T12:50:42.970Z,9.25
2022-12-25T12:55:46.802Z,9.35
2022-12-25T13:01:01.222Z,9.36
2022-12-25T13:06:14.242Z,9.35
2022-12-25T13:11:18.050Z,9.31
2022-12-25T13:16:26.025Z,9.42
2022-12-25T13:21:30.330Z,9.48
2022-12-25T13:26:34.244Z,9.37
2022-12-25T13:31:38.082Z,9.18
2022-12-25T13:36:41.900Z,8.98
2022-12-25T13:42:05.900Z,8.78
2022-12-25T13:47:25.038Z,8.58
2022-12-25T13:52:35.030Z,8.35
2022-12-25T13:57:41.805Z,8.21
2022-12-25T14:02:45.974Z,8.04
2022-12-25T14:07:58.697Z,7.90
2022-12-25T14:13:06.429Z,7.77
2022-12-25T14:18:18.028Z,7.59
2022-12-25T14:23:22.000Z,7.41
2022-12-25T14:28:32.855Z,7.24
2022-12-25T14:33:39.257Z,7.08
2022-12-25T14:38:44.363Z,6.98
2022-12-25T14:43:55.556Z,6.89
2022-12-25T14:49:07.798Z,6.83
2022-12-25T14:54:17.523Z,6.75
2022-12-25T14:59:24.677Z,6.69
2022-12-25T15:04:29.125Z,6.65
2022-12-25T15:09:33.499Z,6.62
2022-12-25T15:14:40.495Z,6.58
2022-12-25T15:19:44.311Z,6.55
2022-12-25T15:24:48.194Z,6.55
2022-12-25T15:35:19.258Z,6.54
2022-12-25T15:40:23.203Z,6.52
2022-12-25T15:45:29.533Z,6.51
2022-12-25T15:50:35.513Z,6.45
2022-12-25T15:55:40.127Z,6.41
2022-12-25T16:00:43.986Z,6.38
2022-12-25T16:05:47.805Z,6.36
2022-12-25T16:10:51.607Z,6.30
2022-12-25T16:15:55.411Z,6.19
2022-12-25T16:20:59.577Z,6.14
2022-12-25T16:26:03.442Z,6.12
2022-12-25T16:31:07.828Z,6.10
2022-12-25T16:36:11.687Z,6.13
2022-12-25T16:41:16.552Z,6.13
2022-12-25T16:46:22.813Z,6.12
2022-12-25T16:51:27.699Z,6.11
2022-12-25T16:56:32.790Z,6.13
2022-12-25T17:01:38.541Z,6.13
2022-12-25T17:06:42.550Z,6.14
2022-12-25T17:11:46.518Z,6.12
2022-12-25T17:16:50.402Z,6.10
2022-12-25T17:21:57.653Z,6.09
2022-12-25T17:27:01.443Z,6.08
2022-12-25T17:32:05.343Z,6.06
2022-12-25T17:37:09.172Z,6.01
2022-12-25T17:42:12.966Z,5.98
2022-12-25T17:47:16.840Z,5.96
2022-12-25T17:52:20.865Z,5.94
2022-12-25T17:57:24.687Z,5.93
2022-12-25T18:02:30.478Z,5.93
2022-12-25T18:07:34.549Z,5.88
2022-12-25T18:12:38.320Z,5.86
2022-12-25T18:17:42.078Z,5.84
2022-12-25T18:22:45.869Z,5.84
2022-12-25T18:27:49.664Z,5.87
2022-12-25T18:32:53.481Z,5.85
2022-12-25T18:37:59.507Z,5.87
2022-12-25T18:43:03.768Z,5.86
2022-12-25T18:48:08.387Z,5.86
2022-12-25T18:53:12.382Z,5.87
2022-12-25T18:58:16.217Z,5.88
2022-12-25T19:03:20.258Z,5.88
2022-12-25T19:08:24.746Z,5.87
2022-12-25T19:13:28.844Z,5.86
2022-12-25T19:18:33.114Z,5.86
2022-12-25T19:23:41.180Z,5.86
2022-12-25T19:28:44.942Z,5.88
2022-12-25T19:33:49.033Z,5.90
2022-12-25T19:38:52.785Z,5.93
2022-12-25T19:43:56.827Z,5.95
2022-12-25T19:49:04.624Z,5.95
2022-12-25T19:54:14.752Z,5.98
2022-12-25T19:59:18.951Z,5.95
2022-12-25T20:04:23.167Z,5.97
2022-12-25T20:09:27.053Z,5.93
2022-12-25T20:14:30.778Z,5.85
2022-12-25T20:19:42.684Z,5.76
2022-12-25T20:24:48.187Z,5.69
2022-12-25T20:29:52.456Z,5.68
2022-12-25T20:34:56.654Z,5.70
2022-12-25T20:40:00.526Z,5.73
2022-12-25T20:45:07.080Z,5.76
2022-12-25T20:50:11.211Z,5.76
2022-12-25T20:55:15.022Z,5.74
2022-12-25T21:00:18.720Z,5.74
2022-12-25T21:05:22.456Z,5.73
2022-12-25T21:10:26.321Z,5.73
2022-12-25T21:15:30.050Z,5.74
2022-12-25T21:20:33.736Z,5.76
2022-12-25T21:25:37.478Z,5.81
2022-12-25T21:30:41.437Z,5.85
2022-12-25T21:35:45.194Z,5.88
2022-12-25T21:40:48.977Z,5.92
2022-12-25T21:45:52.876Z,5.96
2022-12-25T21:51:27.666Z,6.01
2022-12-25T21:56:35.227Z,6.05
2022-12-25T22:01:42.913Z,6.07
2022-12-25T22:07:06.075Z,6.11
2022-12-25T22:12:33.842Z,6.11
2022-12-25T22:17:58.986Z,6.12
2022-12-25T22:23:03.659Z,6.09
2022-12-25T22:28:08.934Z,6.09
2022-12-25T22:33:13.290Z,6.07
2022-12-25T22:38:17.146Z,6.06
2022-12-25T22:43:20.866Z,6.02
2022-12-25T22:48:24.616Z,6.00
2022-12-25T22:53:28.313Z,5.99
2022-12-25T22:58:32.063Z,5.99
2022-12-25T23:03:35.845Z,5.98
2022-12-25T23:08:39.716Z,5.97
2022-12-25T23:14:02.030Z,5.99
2022-12-25T23:19:25.399Z,6.01
2022-12-25T23:24:48.579Z,6.04
2022-12-25T23:29:54.811Z,6.05
2022-12-25T23:34:58.456Z,6.06
2022-12-25T23:40:02.141Z,6.03
2022-12-25T23:45:06.562Z,6.03
2022-12-25T23:50:10.837Z,6.06
2022-12-25T23:55:14.553Z,6.06
